Altonah, Utah
Current Conditions -  °F | °C
As of 10:53 AM on Wednesday 26 Nov 2014 (Local Time) from KVEL Reporting Station
Clear Clear  
Wind Chill: 45°   Ceiling: Unl
Heat Index: 45°   Visibility: 10mi
Dew Point: 29°   Wind: 0mph
Humidity: 53%   Direction: NA
Pressure: 30.34"   Gusts: NA
Location:  40.4°N, 110.29°W
Report Text: KVEL 261753Z AUTO 00000KT 10SM CLR 07/M02 A3034 RMK AO2 SLP283 T00721017 10072 21033 50010
Loading
Personal Weather Stations






























Interactive Weather Map New forecast layout! Learn more

10-Day Weather Forecast

Advertisements
Track Severe Weather on mobile